Time;durP1;ratioP1;P1;durP2;ratioP2;P2;SDS_P1;SDS_P2;PMS_P1;PMS_P2;Temp;Humidity;BMP_temperature;BMP_pressure;BME280_temperature;BME280_humidity;BME280_pressure;Samples;Min_cycle;Max_cycle;Signal;HPM_P1;HPM_P2
2022/03/10 00:01:50;;;;;;;26.67;18.47;;;;;;;2.50;66.13;102291.91;5090640;28;20043;-60
2022/03/10 00:04:15;;;;;;;25.70;19.13;;;;;;;2.48;66.48;102295.09;5090428;28;20369;-60
2022/03/10 00:06:40;;;;;;;25.03;18.90;;;;;;;2.44;66.71;102290.47;5090505;28;20085;-61
2022/03/10 00:09:06;;;;;;;27.60;19.40;;;;;;;2.42;66.91;102291.97;5090782;28;20024;-60
2022/03/10 00:11:31;;;;;;;27.00;19.20;;;;;;;2.36;67.08;102292.34;5090577;28;20484;-61
2022/03/10 00:13:56;;;;;;;22.90;18.17;;;;;;;2.32;67.44;102296.28;5090359;28;20529;-58
2022/03/10 00:16:22;;;;;;;29.20;19.90;;;;;;;2.27;67.58;102298.44;5090262;28;20027;-59
2022/03/10 00:18:47;;;;;;;25.20;18.40;;;;;;;2.24;67.76;102304.94;5089903;28;20515;-57
2022/03/10 00:21:13;;;;;;;26.27;17.80;;;;;;;2.23;67.90;102308.28;5090295;28;20024;-60
2022/03/10 00:23:39;;;;;;;23.17;17.80;;;;;;;2.21;68.30;102304.66;5090507;28;20281;-60
2022/03/10 00:26:04;;;;;;;24.90;18.57;;;;;;;2.20;68.12;102300.28;5090094;28;20114;-60
2022/03/10 00:28:30;;;;;;;26.40;19.63;;;;;;;2.15;68.64;102303.38;5090328;28;20326;-60
2022/03/10 00:30:55;;;;;;;26.17;19.00;;;;;;;2.07;69.00;102296.63;5090144;28;20111;-60
2022/03/10 00:33:22;;;;;;;28.97;19.27;;;;;;;2.01;69.49;102301.22;5090529;28;20028;-60
2022/03/10 00:35:47;;;;;;;28.20;20.27;;;;;;;1.94;69.65;102297.22;5090260;28;20388;-60
2022/03/10 00:38:13;;;;;;;29.03;21.63;;;;;;;1.89;70.04;102299.31;5089977;28;20031;-60
2022/03/10 00:40:39;;;;;;;26.23;20.33;;;;;;;1.85;70.37;102296.38;5089779;28;20061;-60
2022/03/10 00:43:09;;;;;;;28.10;21.27;;;;;;;1.78;70.26;102300.91;5090015;28;20113;-62
2022/03/10 00:45:35;;;;;;;26.20;20.23;;;;;;;1.74;70.82;102305.59;5090052;28;20028;-60
2022/03/10 00:48:00;;;;;;;27.13;20.13;;;;;;;1.64;71.08;102304.75;5089712;28;20028;-59
2022/03/10 00:50:25;;;;;;;29.03;21.30;;;;;;;1.51;71.94;102309.50;5089579;28;20051;-60
2022/03/10 00:52:51;;;;;;;26.73;20.97;;;;;;;1.42;72.60;102307.88;5089891;28;20534;-60
2022/03/10 00:55:18;;;;;;;26.70;19.20;;;;;;;1.35;72.63;102308.06;5089605;28;20020;-60
2022/03/10 00:57:43;;;;;;;27.50;20.70;;;;;;;1.23;72.91;102312.03;5089613;28;20027;-60
2022/03/10 01:00:10;;;;;;;28.73;21.30;;;;;;;1.07;73.91;102305.47;5089404;28;20071;-59
2022/03/10 01:02:36;;;;;;;27.40;20.50;;;;;;;1.01;74.45;102315.13;5089472;28;20024;-60
2022/03/10 01:05:02;;;;;;;24.83;20.70;;;;;;;0.98;74.59;102312.25;5089811;28;20034;-59
2022/03/10 01:07:28;;;;;;;27.07;20.77;;;;;;;1.01;74.85;102315.13;5089962;28;20106;-59
2022/03/10 01:09:53;;;;;;;25.70;20.63;;;;;;;0.99;74.96;102317.50;5089421;28;20047;-60
2022/03/10 01:12:18;;;;;;;28.77;21.73;;;;;;;0.91;75.28;102321.00;5090119;28;20100;-59
2022/03/10 01:14:44;;;;;;;27.50;21.17;;;;;;;0.85;75.94;102322.97;5089684;28;20047;-60
2022/03/10 01:17:09;;;;;;;24.87;19.70;;;;;;;0.84;76.13;102311.88;5089571;28;20431;-60
2022/03/10 01:19:35;;;;;;;27.63;21.10;;;;;;;0.81;76.11;102316.69;5089244;28;20566;-60
2022/03/10 01:22:01;;;;;;;31.07;21.73;;;;;;;0.77;76.34;102306.94;5089557;28;20028;-58
2022/03/10 01:24:26;;;;;;;25.80;20.17;;;;;;;0.75;76.97;102313.53;5089555;28;20113;-58
2022/03/10 01:26:52;;;;;;;25.40;19.97;;;;;;;0.70;77.04;102301.22;5089593;28;20097;-59
2022/03/10 01:29:17;;;;;;;27.80;20.47;;;;;;;0.76;76.86;102307.66;5089675;28;20069;-60
2022/03/10 01:31:43;;;;;;;30.33;20.83;;;;;;;0.79;76.92;102307.97;5089410;28;20024;-58
2022/03/10 01:34:09;;;;;;;30.13;20.47;;;;;;;0.83;76.75;102310.94;5089294;28;20355;-60
2022/03/10 01:36:34;;;;;;;27.80;20.40;;;;;;;0.82;76.61;102298.97;5089437;28;20476;-60
2022/03/10 01:39:03;;;;;;;27.70;20.33;;;;;;;0.77;76.34;102301.81;5089329;28;20024;-60
2022/03/10 01:41:28;;;;;;;29.47;21.70;;;;;;;0.79;76.92;102298.63;5089512;28;20081;-60
2022/03/10 01:43:57;;;;;;;28.30;21.73;;;;;;;0.80;76.82;102305.56;5089376;28;20036;-60
2022/03/10 01:46:23;;;;;;;26.37;19.83;;;;;;;0.82;76.93;102298.03;5089166;28;20020;-60
2022/03/10 01:48:49;;;;;;;29.50;20.93;;;;;;;0.86;77.21;102299.25;5089232;28;20024;-58
2022/03/10 01:51:15;;;;;;;29.13;20.70;;;;;;;0.90;77.31;102299.66;5089193;28;20528;-60
2022/03/10 01:53:42;;;;;;;28.83;20.57;;;;;;;0.89;77.09;102300.44;5089423;28;20039;-59
2022/03/10 01:56:08;;;;;;;23.50;19.27;;;;;;;0.92;76.90;102294.69;5089253;28;20028;-60
2022/03/10 01:58:34;;;;;;;27.57;19.70;;;;;;;0.95;77.09;102295.00;5088928;28;20135;-60
2022/03/10 02:01:00;;;;;;;29.73;19.33;;;;;;;0.99;76.92;102301.31;5088834;28;20076;-60
2022/03/10 02:03:25;;;;;;;25.00;19.67;;;;;;;1.02;76.72;102296.50;5089092;28;20396;-59
2022/03/10 02:05:51;;;;;;;28.27;20.60;;;;;;;1.00;76.53;102291.25;5088788;28;20024;-59
2022/03/10 02:11:02;;;;;;;27.33;20.23;;;;;;;1.01;76.81;102289.59;5089888;28;20449;-60
2022/03/10 02:13:27;;;;;;;26.43;19.50;;;;;;;1.02;76.36;102287.19;5089789;28;20040;-60
2022/03/10 02:18:36;;;;;;;28.33;19.27;;;;;;;1.03;77.14;102293.16;5089860;28;20284;-59
2022/03/10 02:21:01;;;;;;;26.17;19.90;;;;;;;1.00;77.12;102285.22;5089714;28;20060;-58
2022/03/10 02:23:27;;;;;;;28.80;19.80;;;;;;;1.00;76.78;102283.59;5089595;28;20133;-60
2022/03/10 02:25:52;;;;;;;27.23;20.03;;;;;;;0.99;77.49;102283.44;5089492;28;20096;-60
2022/03/10 02:28:18;;;;;;;28.87;19.50;;;;;;;1.00;77.42;102277.56;5089478;28;20047;-60
2022/03/10 02:30:43;;;;;;;25.33;20.13;;;;;;;0.95;77.25;102284.81;5089547;28;20032;-60
2022/03/10 02:33:08;;;;;;;26.90;19.87;;;;;;;0.93;77.12;102278.66;5089722;28;20063;-60
2022/03/10 02:35:34;;;;;;;26.50;20.17;;;;;;;0.89;76.87;102292.78;5089349;28;20043;-60
2022/03/10 02:38:00;;;;;;;25.97;19.90;;;;;;;0.85;77.93;102288.13;5089537;28;20032;-60
2022/03/10 02:40:26;;;;;;;29.23;20.37;;;;;;;0.85;78.08;102290.69;5089268;28;20028;-60
2022/03/10 02:42:52;;;;;;;27.83;20.43;;;;;;;0.82;77.97;102287.84;5089373;28;20036;-59
2022/03/10 02:45:17;;;;;;;28.70;20.50;;;;;;;0.78;77.96;102290.84;5089097;28;20546;-60
2022/03/10 02:47:43;;;;;;;26.93;19.90;;;;;;;0.76;78.40;102288.16;5090070;28;20047;-60
2022/03/10 02:50:09;;;;;;;30.23;21.30;;;;;;;0.75;78.42;102290.56;5091921;28;20028;-61
2022/03/10 02:52:38;;;;;;;27.27;20.30;;;;;;;0.72;78.44;102286.03;5091804;28;20023;-59
2022/03/10 02:55:05;;;;;;;30.03;21.20;;;;;;;0.71;79.25;102291.91;5091913;28;20073;-60
2022/03/10 02:57:31;;;;;;;28.63;20.10;;;;;;;0.68;78.61;102282.34;5091776;28;20028;-60
2022/03/10 02:59:58;;;;;;;26.67;19.80;;;;;;;0.67;78.26;102287.25;5091685;28;20074;-59
2022/03/10 03:02:24;;;;;;;28.93;19.70;;;;;;;0.62;78.97;102279.19;5091678;28;20400;-59
2022/03/10 03:04:49;;;;;;;27.67;20.30;;;;;;;0.60;79.75;102285.78;5091584;28;20036;-60
2022/03/10 03:07:14;;;;;;;27.57;20.60;;;;;;;0.59;79.95;102289.09;5091571;28;20062;-60
2022/03/10 03:09:40;;;;;;;30.00;20.93;;;;;;;0.60;79.29;102290.88;5091526;28;20051;-59
2022/03/10 03:12:05;;;;;;;26.80;20.33;;;;;;;0.58;79.82;102287.28;5091540;28;20054;-60
2022/03/10 03:14:30;;;;;;;25.90;20.17;;;;;;;0.56;79.56;102292.25;5091653;28;20059;-60
2022/03/10 03:16:56;;;;;;;26.60;20.10;;;;;;;0.58;80.36;102279.63;5091802;28;20110;-60
2022/03/10 03:19:22;;;;;;;27.93;20.40;;;;;;;0.60;79.31;102290.88;5091248;28;20373;-59
2022/03/10 03:21:47;;;;;;;25.67;20.43;;;;;;;0.58;79.51;102292.38;5091507;28;20035;-59
2022/03/10 03:24:13;;;;;;;29.70;20.67;;;;;;;0.61;79.80;102297.81;5091447;28;20472;-60
2022/03/10 03:26:38;;;;;;;28.43;20.57;;;;;;;0.62;79.63;102299.59;5091162;28;20036;-60
2022/03/10 03:29:04;;;;;;;27.67;19.87;;;;;;;0.62;79.04;102298.69;5091247;28;20468;-60
2022/03/10 03:31:30;;;;;;;27.83;20.03;;;;;;;0.62;79.42;102299.59;5091394;28;20032;-59
2022/03/10 03:33:55;;;;;;;27.77;19.97;;;;;;;0.58;80.04;102303.50;5090977;28;20054;-60
2022/03/10 03:36:20;;;;;;;27.27;20.27;;;;;;;0.59;80.09;102300.19;5091123;28;20028;-60
2022/03/10 03:38:46;;;;;;;28.17;20.97;;;;;;;0.61;79.62;102304.56;5091370;28;20050;-60
2022/03/10 03:41:11;;;;;;;28.30;18.97;;;;;;;0.61;79.89;102300.34;5090963;28;20202;-60
2022/03/10 03:43:37;;;;;;;29.20;20.73;;;;;;;0.61;79.20;102308.00;5089671;28;20468;-60
2022/03/10 03:46:02;;;;;;;28.63;19.80;;;;;;;0.59;79.91;102305.28;5091138;28;20081;-59
2022/03/10 03:48:27;;;;;;;25.50;20.03;;;;;;;0.57;79.84;102305.91;5090997;28;20107;-58
2022/03/10 03:50:53;;;;;;;27.53;20.33;;;;;;;0.56;79.83;102309.19;5090686;28;20030;-60
2022/03/10 03:53:18;;;;;;;27.70;20.67;;;;;;;0.52;79.37;102304.56;5090605;28;20050;-60
2022/03/10 03:55:44;;;;;;;26.23;19.50;;;;;;;0.47;80.49;102307.56;5090667;28;20028;-60
2022/03/10 03:58:11;;;;;;;31.37;21.13;;;;;;;0.45;80.12;102311.63;5090646;28;20479;-60
2022/03/10 04:00:36;;;;;;;26.70;20.10;;;;;;;0.41;79.65;102314.63;5090479;28;20105;-60
2022/03/10 04:03:12;;;;;;;28.03;19.57;;;;;;;0.39;80.39;102318.69;5090486;28;20068;-59
2022/03/10 04:05:39;;;;;;;27.67;20.83;;;;;;;0.33;80.02;102321.53;5090864;28;20052;-59
2022/03/10 04:08:05;;;;;;;28.50;20.30;;;;;;;0.31;80.11;102322.13;5090520;28;20066;-60
2022/03/10 04:10:31;;;;;;;26.67;19.97;;;;;;;0.29;80.11;102331.31;5090530;28;20060;-60
2022/03/10 04:12:56;;;;;;;29.27;20.63;;;;;;;0.25;80.15;102337.75;5090451;28;20031;-59
2022/03/10 04:15:22;;;;;;;25.60;19.60;;;;;;;0.19;80.53;102324.38;5090185;28;20124;-59
2022/03/10 04:17:47;;;;;;;25.47;19.60;;;;;;;0.16;80.80;102325.00;5090469;28;20034;-60
2022/03/10 04:20:13;;;;;;;27.57;19.90;;;;;;;0.12;80.60;102325.44;5089994;28;20027;-59
2022/03/10 04:22:40;;;;;;;28.47;19.90;;;;;;;0.07;81.08;102324.09;5090350;28;20091;-59
2022/03/10 04:25:08;;;;;;;27.37;20.07;;;;;;;0.04;80.95;102326.31;5090173;28;20417;-59
2022/03/10 04:27:35;;;;;;;28.90;21.00;;;;;;;-0.02;81.70;102322.41;5090138;28;20418;-59
2022/03/10 04:30:01;;;;;;;27.93;19.90;;;;;;;-0.06;82.13;102327.97;5089781;28;20077;-58
2022/03/10 04:32:26;;;;;;;26.23;19.60;;;;;;;-0.09;81.91;102329.31;5090232;28;20029;-59
2022/03/10 04:34:52;;;;;;;26.73;19.53;;;;;;;-0.18;82.02;102330.19;5090210;28;20027;-60
2022/03/10 04:37:17;;;;;;;31.50;21.27;;;;;;;-0.28;82.77;102325.81;5089863;28;20088;-59
2022/03/10 04:39:42;;;;;;;24.70;19.37;;;;;;;-0.30;83.09;102329.84;5089716;28;20024;-60
2022/03/10 04:42:08;;;;;;;27.47;20.37;;;;;;;-0.33;82.52;102337.19;5089888;28;20027;-59
2022/03/10 04:44:33;;;;;;;26.50;19.63;;;;;;;-0.37;83.33;102333.44;5090122;28;20361;-59
2022/03/10 04:46:58;;;;;;;26.70;19.63;;;;;;;-0.43;84.19;102331.94;5089937;28;20043;-60
2022/03/10 04:49:24;;;;;;;25.70;18.77;;;;;;;-0.44;83.33;102330.13;5089830;28;20024;-59
2022/03/10 04:51:49;;;;;;;29.87;20.13;;;;;;;-0.45;82.82;102324.09;5089877;28;20036;-58
2022/03/10 04:54:15;;;;;;;29.67;21.03;;;;;;;-0.49;83.87;102322.91;5089844;28;20020;-59
2022/03/10 04:56:40;;;;;;;26.03;19.60;;;;;;;-0.49;83.74;102325.44;5089812;28;20035;-59
2022/03/10 04:59:06;;;;;;;30.17;20.63;;;;;;;-0.51;83.76;102313.31;5089613;28;20055;-59
2022/03/10 05:01:31;;;;;;;26.47;20.27;;;;;;;-0.51;84.08;102318.41;5089654;28;20028;-58
2022/03/10 05:03:56;;;;;;;28.60;19.40;;;;;;;-0.53;84.05;102318.25;5089558;28;20035;-60
2022/03/10 05:06:22;;;;;;;26.57;20.30;;;;;;;-0.52;83.50;102325.16;5089580;28;20326;-56
2022/03/10 05:08:48;;;;;;;27.13;18.67;;;;;;;-0.51;83.79;102334.59;5089657;28;20043;-60
2022/03/10 05:11:13;;;;;;;27.10;20.80;;;;;;;-0.51;83.87;102333.69;5089684;28;20170;-59
2022/03/10 05:13:38;;;;;;;26.60;19.40;;;;;;;-0.52;83.49;102330.25;5089714;28;20039;-60
2022/03/10 05:16:04;;;;;;;28.50;19.77;;;;;;;-0.53;83.52;102338.63;5089518;28;20024;-58
2022/03/10 05:18:30;;;;;;;28.27;19.07;;;;;;;-0.53;83.99;102340.28;5089688;28;20437;-59
2022/03/10 05:20:55;;;;;;;26.03;19.37;;;;;;;-0.55;84.26;102342.66;5089334;28;20114;-59
2022/03/10 05:23:20;;;;;;;29.50;21.30;;;;;;;-0.58;83.65;102339.81;5089747;28;20020;-59
2022/03/10 05:25:46;;;;;;;26.57;20.47;;;;;;;-0.60;83.68;102341.31;5089454;28;20059;-59
2022/03/10 05:28:13;;;;;;;25.43;18.23;;;;;;;-0.62;83.97;102332.59;5089561;28;20024;-58
2022/03/10 05:30:40;;;;;;;25.60;19.67;;;;;;;-0.66;83.96;102333.03;5089573;28;20345;-59
2022/03/10 05:33:06;;;;;;;27.93;19.20;;;;;;;-0.71;84.18;102336.75;5089490;28;20391;-60
2022/03/10 05:35:31;;;;;;;32.17;22.13;;;;;;;-0.74;84.34;102337.34;5089105;28;20020;-60
2022/03/10 05:37:57;;;;;;;26.63;18.93;;;;;;;-0.80;84.70;102340.16;5089335;28;20031;-59
2022/03/10 05:40:23;;;;;;;29.53;19.93;;;;;;;-0.83;85.55;102334.78;5089435;28;20024;-59
2022/03/10 05:42:51;;;;;;;29.13;20.70;;;;;;;-0.83;85.61;102349.13;5092177;28;20476;-60
2022/03/10 05:45:20;;;;;;;28.80;19.53;;;;;;;-0.85;85.86;102332.03;5093221;28;20384;-60
2022/03/10 05:47:46;;;;;;;29.93;20.60;;;;;;;-0.86;85.91;102335.34;5092777;28;20360;-58
2022/03/10 05:50:11;;;;;;;29.87;20.67;;;;;;;-0.88;85.16;102341.03;5091771;28;20043;-59
2022/03/10 05:52:37;;;;;;;26.20;20.20;;;;;;;-0.94;85.88;102346.41;5090951;28;20418;-59
2022/03/10 05:55:03;;;;;;;26.67;19.83;;;;;;;-0.95;86.24;102339.47;5090327;28;20060;-58
2022/03/10 05:57:28;;;;;;;30.80;19.60;;;;;;;-0.94;85.97;102335.31;5089925;28;20051;-59
2022/03/10 05:59:54;;;;;;;25.70;19.03;;;;;;;-0.94;85.63;102342.94;5090208;28;20072;-59
2022/03/10 06:02:19;;;;;;;31.50;21.23;;;;;;;-0.92;86.07;102336.38;5091687;28;20391;-59
2022/03/10 06:04:45;;;;;;;36.70;20.87;;;;;;;-0.95;85.68;102336.06;5092640;28;20379;-59
2022/03/10 06:07:11;;;;;;;28.40;19.63;;;;;;;-0.99;86.52;102339.94;5092717;28;20495;-59
2022/03/10 06:09:36;;;;;;;33.10;21.33;;;;;;;-1.03;86.19;102336.16;5092975;28;20020;-59
2022/03/10 06:12:02;;;;;;;25.00;19.40;;;;;;;-1.03;86.61;102345.44;5092676;28;20050;-59
2022/03/10 06:14:27;;;;;;;26.77;20.20;;;;;;;-1.05;86.81;102337.66;5092428;28;20028;-59
2022/03/10 06:16:53;;;;;;;29.43;20.27;;;;;;;-1.04;87.11;102336.91;5092800;28;20012;-60
2022/03/10 06:19:19;;;;;;;29.77;20.77;;;;;;;-1.04;86.67;102339.44;5090862;28;20089;-59
2022/03/10 06:21:45;;;;;;;31.03;20.70;;;;;;;-1.06;87.37;102337.50;5092502;28;20066;-60
2022/03/10 06:24:10;;;;;;;29.93;21.57;;;;;;;-1.05;86.93;102341.84;5092364;28;20028;-57
2022/03/10 06:26:36;;;;;;;27.07;20.27;;;;;;;-1.04;86.99;102339.44;5092236;28;20036;-59
2022/03/10 06:29:04;;;;;;;27.33;19.93;;;;;;;-1.01;87.41;102349.94;5092651;28;20051;-59
2022/03/10 06:31:29;;;;;;;28.83;19.90;;;;;;;-0.97;87.63;102346.06;5092391;28;20024;-60
2022/03/10 06:33:54;;;;;;;26.60;20.67;;;;;;;-0.93;87.13;102347.28;5092074;28;20472;-58
2022/03/10 06:36:20;;;;;;;28.57;20.67;;;;;;;-0.90;86.83;102352.72;5092009;28;20135;-60
2022/03/10 06:38:45;;;;;;;25.83;19.47;;;;;;;-0.85;87.28;102346.44;5092108;28;20063;-59
2022/03/10 06:41:10;;;;;;;30.70;20.80;;;;;;;-0.79;86.58;102347.06;5092135;28;20178;-58
2022/03/10 06:43:36;;;;;;;28.33;20.13;;;;;;;-0.74;86.61;102345.88;5092133;28;20024;-60
2022/03/10 06:46:01;;;;;;;30.17;20.37;;;;;;;-0.66;85.76;102353.41;5092119;28;20048;-59
2022/03/10 06:48:26;;;;;;;30.40;20.07;;;;;;;-0.62;85.44;102350.44;5091712;28;20357;-58
2022/03/10 06:50:52;;;;;;;29.17;20.43;;;;;;;-0.55;85.95;102349.41;5091780;28;20054;-57
2022/03/10 06:53:17;;;;;;;29.13;20.80;;;;;;;-0.49;85.90;102345.81;5091322;28;20369;-59
2022/03/10 06:55:43;;;;;;;28.20;20.90;;;;;;;-0.39;85.74;102354.41;5091755;28;20330;-59
2022/03/10 06:58:08;;;;;;;28.43;21.40;;;;;;;-0.28;85.25;102358.03;5091625;28;20049;-59
2022/03/10 07:00:34;;;;;;;28.97;21.10;;;;;;;-0.11;84.34;102361.38;5091193;28;20044;-59
2022/03/10 07:02:59;;;;;;;34.10;23.63;;;;;;;0.08;84.51;102359.00;5091647;28;20095;-59
2022/03/10 07:05:24;;;;;;;44.93;29.73;;;;;;;0.40;82.73;102368.94;5091563;28;20020;-59
2022/03/10 07:07:50;;;;;;;36.53;23.80;;;;;;;0.62;81.57;102371.03;5091560;28;20028;-60
2022/03/10 07:10:15;;;;;;;29.97;22.60;;;;;;;0.81;80.97;102365.19;5091375;28;20020;-59
2022/03/10 07:12:42;;;;;;;28.13;20.80;;;;;;;1.03;80.74;102372.31;5091836;28;20077;-59
2022/03/10 07:15:11;;;;;;;30.53;19.90;;;;;;;1.40;79.42;102363.03;5091680;28;20102;-58
2022/03/10 07:17:38;;;;;;;26.67;19.83;;;;;;;1.69;76.99;102376.78;5091480;28;20480;-59
2022/03/10 07:20:05;;;;;;;26.83;18.93;;;;;;;1.90;75.66;102369.28;5090917;28;20388;-58
2022/03/10 07:22:30;;;;;;;28.00;20.23;;;;;;;2.07;74.50;102369.94;5091127;28;20034;-59
2022/03/10 07:24:55;;;;;;;25.80;19.80;;;;;;;2.23;73.97;102369.66;5091122;28;20031;-60
2022/03/10 07:27:21;;;;;;;26.07;19.73;;;;;;;2.46;74.18;102361.50;5091147;28;20426;-59
2022/03/10 07:29:46;;;;;;;25.17;20.40;;;;;;;2.77;73.47;102358.19;5091459;28;20065;-59
2022/03/10 07:32:12;;;;;;;26.50;20.07;;;;;;;3.17;71.22;102359.88;5090841;28;20055;-60
2022/03/10 07:34:37;;;;;;;27.93;19.57;;;;;;;3.49;68.58;102364.31;5090747;28;20279;-60
2022/03/10 07:37:02;;;;;;;28.23;19.70;;;;;;;3.80;67.80;102366.03;5091078;28;20095;-59
2022/03/10 07:39:28;;;;;;;25.53;19.80;;;;;;;4.21;66.86;102360.00;5090931;28;20055;-59
2022/03/10 07:41:53;;;;;;;24.40;19.27;;;;;;;4.74;65.16;102364.25;5090922;28;20028;-60
2022/03/10 07:44:19;;;;;;;27.40;19.80;;;;;;;5.52;63.89;102362.59;5090810;28;20073;-60
2022/03/10 07:46:45;;;;;;;26.43;18.93;;;;;;;6.46;62.37;102354.09;5091010;28;20384;-60
2022/03/10 07:49:10;;;;;;;27.75;19.75;;;;;;;7.24;60.26;102352.66;5090675;28;20458;-60
2022/03/10 07:51:36;;;;;;;26.77;19.35;;;;;;;7.68;56.59;102349.66;5090743;28;20064;-59
2022/03/10 07:54:01;;;;;;;26.55;20.80;;;;;;;8.03;55.56;102351.94;5091009;28;20020;-58
2022/03/10 07:56:27;;;;;;;24.55;18.83;;;;;;;8.03;53.13;102345.09;5090497;28;20055;-59
2022/03/10 07:58:52;;;;;;;28.65;20.33;;;;;;;8.31;54.15;102345.13;5090642;28;20486;-60
2022/03/10 08:01:18;;;;;;;27.80;20.00;;;;;;;8.69;53.96;102351.91;5090210;28;20024;-59
2022/03/10 08:03:46;;;;;;;25.73;20.20;;;;;;;8.76;51.50;102342.88;5090061;28;20024;-60
2022/03/10 08:06:12;;;;;;;27.48;20.13;;;;;;;8.97;49.96;102343.34;5090046;28;20024;-60
2022/03/10 08:08:37;;;;;;;28.13;20.83;;;;;;;9.10;49.15;102344.97;5090523;28;20096;-60
2022/03/10 08:11:04;;;;;;;24.75;19.55;;;;;;;9.08;49.27;102351.78;5090383;28;20020;-60
2022/03/10 08:13:31;;;;;;;25.85;20.63;;;;;;;9.08;51.29;102349.19;5090174;28;20023;-60
2022/03/10 08:15:57;;;;;;;27.42;20.67;;;;;;;9.33;49.62;102345.53;5090444;28;20372;-58
2022/03/10 08:18:23;;;;;;;24.52;20.58;;;;;;;9.29;50.17;102356.47;5090739;28;20042;-59
2022/03/10 08:20:49;;;;;;;24.77;20.48;;;;;;;9.62;47.79;102355.84;5090454;28;20028;-60
2022/03/10 08:23:16;;;;;;;25.83;20.13;;;;;;;9.25;48.44;102351.91;5088677;28;20034;-60
2022/03/10 08:25:42;;;;;;;24.95;20.80;;;;;;;9.32;47.90;102346.31;5089892;28;20066;-59
2022/03/10 08:28:08;;;;;;;23.52;19.83;;;;;;;9.95;48.83;102349.97;5089954;28;20468;-59
2022/03/10 08:30:34;;;;;;;30.50;20.10;;;;;;;10.37;47.26;102334.25;5090321;28;20472;-60
2022/03/10 08:32:59;;;;;;;26.60;19.02;;;;;;;10.35;48.73;102345.31;5089973;28;20031;-60
2022/03/10 08:35:24;;;;;;;24.73;20.27;;;;;;;10.59;46.01;102350.16;5089599;28;20078;-60
2022/03/10 08:37:50;;;;;;;29.50;21.02;;;;;;;10.86;46.56;102347.31;5090166;28;20020;-59
2022/03/10 08:40:18;;;;;;;27.58;21.38;;;;;;;11.17;46.41;102341.22;5089816;28;20031;-60
2022/03/10 08:42:44;;;;;;;25.73;19.77;;;;;;;11.04;44.87;102335.34;5089837;28;20384;-59
2022/03/10 08:45:10;;;;;;;25.95;19.55;;;;;;;11.36;45.78;102334.38;5089840;28;20476;-60
2022/03/10 08:47:36;;;;;;;25.08;20.40;;;;;;;11.56;46.59;102338.03;5089943;28;20034;-60
2022/03/10 08:50:01;;;;;;;27.70;19.63;;;;;;;11.74;43.88;102325.13;5089444;28;20468;-60
2022/03/10 08:52:27;;;;;;;26.50;21.42;;;;;;;11.57;43.29;102328.53;5090224;28;20024;-60
2022/03/10 08:54:52;;;;;;;23.35;20.70;;;;;;;11.34;43.64;102338.59;5089779;28;20020;-60
2022/03/10 08:57:18;;;;;;;24.88;20.48;;;;;;;11.69;45.65;102336.97;5089676;28;20056;-60
2022/03/10 08:59:44;;;;;;;24.60;19.42;;;;;;;11.91;43.50;102331.97;5089439;28;20048;-60
2022/03/10 09:02:09;;;;;;;30.25;21.60;;;;;;;12.09;43.66;102329.38;5089468;28;20032;-61
2022/03/10 09:04:34;;;;;;;25.38;20.67;;;;;;;11.85;43.91;102338.66;5089944;28;20103;-60
2022/03/10 09:07:00;;;;;;;25.58;19.50;;;;;;;11.75;42.51;102329.47;5089885;28;20031;-61
2022/03/10 09:09:25;;;;;;;28.95;20.60;;;;;;;12.04;45.12;102323.97;5089498;28;20107;-60
2022/03/10 09:11:51;;;;;;;24.38;20.77;;;;;;;12.42;43.35;102323.19;5089473;28;20567;-61
2022/03/10 09:14:16;;;;;;;26.83;21.17;;;;;;;12.32;43.70;102321.88;5089741;28;20016;-60
2022/03/10 09:16:42;;;;;;;27.40;20.15;;;;;;;12.51;42.96;102313.25;5092241;28;20016;-61
2022/03/10 09:19:07;;;;;;;24.40;20.88;;;;;;;12.75;43.25;102314.31;5093855;28;20094;-60
2022/03/10 09:21:33;;;;;;;24.45;20.15;;;;;;;12.92;42.22;102313.38;5093603;28;20107;-60
2022/03/10 09:23:58;;;;;;;24.00;20.42;;;;;;;12.69;41.35;102313.22;5093514;28;20016;-60
2022/03/10 09:26:23;;;;;;;27.58;20.83;;;;;;;12.82;42.32;102316.41;5093530;28;20023;-60
2022/03/10 09:28:49;;;;;;;23.85;19.98;;;;;;;12.87;41.43;102303.59;5093904;28;20350;-59
2022/03/10 09:31:16;;;;;;;21.77;19.25;;;;;;;12.92;40.33;102312.50;5093262;28;20016;-60
2022/03/10 09:33:42;;;;;;;27.15;20.80;;;;;;;12.52;39.70;102306.34;5093357;28;20032;-61
2022/03/10 09:36:08;;;;;;;26.67;20.48;;;;;;;12.59;42.31;102303.22;5093287;28;20028;-61
2022/03/10 09:38:33;;;;;;;24.45;19.65;;;;;;;12.67;41.58;102299.25;5093331;28;20024;-61
2022/03/10 09:40:58;;;;;;;29.67;21.60;;;;;;;12.77;41.58;102297.09;5093173;28;20510;-60
2022/03/10 09:43:28;;;;;;;25.08;21.35;;;;;;;12.67;40.30;102300.97;5093199;28;20086;-60
2022/03/10 09:45:53;;;;;;;25.38;21.05;;;;;;;12.53;40.63;102293.41;5093178;28;20475;-61
2022/03/10 09:48:19;;;;;;;22.27;19.85;;;;;;;12.47;43.48;102291.41;5093100;28;20023;-61
2022/03/10 09:50:49;;;;;;;26.08;19.95;;;;;;;12.58;41.85;102291.91;5091676;28;20468;-61
2022/03/10 09:53:15;;;;;;;22.83;20.03;;;;;;;12.40;41.86;102291.94;5092706;28;20031;-61
2022/03/10 09:55:41;;;;;;;26.13;20.88;;;;;;;12.10;41.69;102287.03;5092805;28;20270;-61
2022/03/10 09:58:07;;;;;;;26.85;21.80;;;;;;;12.25;43.14;102286.88;5092862;28;20479;-61
2022/03/10 10:00:33;;;;;;;26.60;20.75;;;;;;;12.14;43.28;102286.38;5092554;28;20055;-60
2022/03/10 10:02:58;;;;;;;25.63;20.92;;;;;;;12.08;43.39;102283.44;5092931;28;20051;-61
2022/03/10 10:05:26;;;;;;;25.10;21.33;;;;;;;11.99;42.97;102284.78;5092515;28;20085;-61
2022/03/10 10:08:05;;;;;;;25.30;20.98;;;;;;;12.03;43.88;102274.53;5093151;28;20016;-61
2022/03/10 10:10:32;;;;;;;25.52;20.52;;;;;;;12.09;44.80;102277.41;5092727;28;20044;-62
2022/03/10 10:12:57;;;;;;;24.15;20.88;;;;;;;12.18;43.76;102280.50;5093186;28;20028;-61
2022/03/10 10:15:23;;;;;;;24.92;20.60;;;;;;;12.01;44.07;102283.16;5092506;28;20479;-59
2022/03/10 10:17:59;;;;;;;27.40;21.48;;;;;;;12.10;44.43;102277.56;5092483;28;20107;-61
2022/03/10 10:20:30;;;;;;;25.15;19.90;;;;;;;12.00;43.47;102275.25;5092361;28;20032;-61
2022/03/10 10:22:55;;;;;;;25.85;20.23;;;;;;;11.96;43.99;102279.41;5091952;28;20027;-61
2022/03/10 10:25:23;;;;;;;24.67;20.33;;;;;;;12.09;44.09;102269.63;5092156;28;20460;-61
2022/03/10 10:27:48;;;;;;;28.33;20.88;;;;;;;12.13;45.45;102272.50;5091571;28;20545;-61
2022/03/10 10:30:14;;;;;;;24.25;20.00;;;;;;;12.31;45.52;102262.91;5092051;28;20024;-60
2022/03/10 10:32:42;;;;;;;24.60;20.75;;;;;;;12.46;45.79;102260.16;5092232;28;20035;-61
2022/03/10 10:35:20;;;;;;;23.48;19.45;;;;;;;12.61;45.04;102266.03;5091946;28;20047;-61
2022/03/10 10:37:48;;;;;;;25.20;20.08;;;;;;;12.73;44.05;102263.16;5092410;28;20047;-61
2022/03/10 10:40:23;;;;;;;27.80;21.77;;;;;;;12.81;43.75;102268.69;5092182;28;20024;-61
2022/03/10 10:42:49;;;;;;;25.13;20.50;;;;;;;12.82;44.12;102270.47;5092308;28;20495;-61
2022/03/10 10:45:33;;;;;;;25.98;21.48;;;;;;;12.85;44.02;102262.81;5090827;28;20028;-61
2022/03/10 10:48:10;;;;;;;28.60;21.33;;;;;;;12.90;44.29;102263.00;5092422;28;20059;-61
2022/03/10 10:50:38;;;;;;;23.95;21.35;;;;;;;13.00;44.77;102253.00;5091825;28;20016;-61
2022/03/10 10:53:05;;;;;;;26.45;21.10;;;;;;;13.10;44.25;102244.78;5091923;28;20095;-60
2022/03/10 10:55:31;;;;;;;22.77;19.20;;;;;;;13.08;44.40;102241.22;5092511;28;20059;-61
2022/03/10 10:58:03;;;;;;;24.92;20.25;;;;;;;13.16;44.38;102245.06;5092092;28;20046;-61
2022/03/10 11:00:40;;;;;;;26.25;20.80;;;;;;;13.21;43.86;102243.56;5091563;28;20051;-61
2022/03/10 11:03:22;;;;;;;25.92;20.75;;;;;;;13.20;43.54;102240.88;5091582;28;20023;-62
2022/03/10 11:05:48;;;;;;;27.48;20.73;;;;;;;13.11;43.81;102243.97;5091684;28;20092;-60
2022/03/10 11:08:16;;;;;;;28.23;19.80;;;;;;;13.18;44.28;102238.22;5091832;28;20012;-61
2022/03/10 11:10:42;;;;;;;22.63;19.83;;;;;;;13.20;44.27;102236.53;5091577;28;20024;-59
2022/03/10 11:13:07;;;;;;;25.70;20.60;;;;;;;13.32;44.43;102235.31;5091520;28;20039;-61
2022/03/10 11:15:33;;;;;;;26.63;21.33;;;;;;;13.49;43.90;102230.81;5091436;28;20024;-61